Airport View

Enter AWOS ICAO identifier for current METAR.

ex. KFNL

KAGC 300253Z VRB05KT 2 1/2SM -RA BR OVC006 08/07 A2968 RMK AO2 CIG 004V011 SLP059 P0004 60006 T00780072 51007

30 Oct 2020 03:48

Phone: 412-466-8968

Other Area AWOS: 42PN - KPIT - KAFJ - KLBE

TAF KAGC 292322Z 3000/3024 03010KT 5SM -RA BR OVC007 FM301300 33007KT P6SM BKN015 FM302300 33010KT P6SM BKN035